sensor_id;sensor_type;location;lat;lon;timestamp;P1;durP1;ratioP1;P2;durP2;ratioP2
16401;SDS011;8310;44.626;11.176;2024-01-30T00:00:39;374.73;;;33.10;;
16401;SDS011;8310;44.626;11.176;2024-01-30T00:03:06;289.90;;;30.65;;
16401;SDS011;8310;44.626;11.176;2024-01-30T00:05:34;486.50;;;34.92;;
16401;SDS011;8310;44.626;11.176;2024-01-30T00:08:01;381.93;;;31.03;;
16401;SDS011;8310;44.626;11.176;2024-01-30T00:10:29;345.05;;;30.80;;
16401;SDS011;8310;44.626;11.176;2024-01-30T00:12:57;351.85;;;31.73;;
16401;SDS011;8310;44.626;11.176;2024-01-30T00:15:24;391.48;;;31.88;;
16401;SDS011;8310;44.626;11.176;2024-01-30T00:17:53;363.50;;;30.95;;
16401;SDS011;8310;44.626;11.176;2024-01-30T00:20:21;329.90;;;30.17;;
16401;SDS011;8310;44.626;11.176;2024-01-30T00:22:50;427.63;;;31.88;;
16401;SDS011;8310;44.626;11.176;2024-01-30T00:25:17;365.42;;;31.45;;
16401;SDS011;8310;44.626;11.176;2024-01-30T00:27:45;309.00;;;31.77;;
16401;SDS011;8310;44.626;11.176;2024-01-30T00:30:13;308.20;;;30.27;;
16401;SDS011;8310;44.626;11.176;2024-01-30T00:32:41;333.02;;;28.25;;
16401;SDS011;8310;44.626;11.176;2024-01-30T00:35:10;373.20;;;28.42;;
16401;SDS011;8310;44.626;11.176;2024-01-30T00:37:38;329.15;;;28.15;;
16401;SDS011;8310;44.626;11.176;2024-01-30T00:40:06;282.45;;;28.35;;
16401;SDS011;8310;44.626;11.176;2024-01-30T00:42:37;304.52;;;28.92;;
16401;SDS011;8310;44.626;11.176;2024-01-30T00:45:05;320.00;;;27.60;;
16401;SDS011;8310;44.626;11.176;2024-01-30T00:47:33;293.60;;;29.13;;
16401;SDS011;8310;44.626;11.176;2024-01-30T00:50:01;266.00;;;28.15;;
16401;SDS011;8310;44.626;11.176;2024-01-30T00:52:30;281.42;;;27.25;;
16401;SDS011;8310;44.626;11.176;2024-01-30T00:55:04;238.80;;;27.52;;
16401;SDS011;8310;44.626;11.176;2024-01-30T00:57:32;256.43;;;26.47;;
16401;SDS011;8310;44.626;11.176;2024-01-30T01:00:00;274.60;;;28.33;;
16401;SDS011;8310;44.626;11.176;2024-01-30T01:02:27;282.10;;;28.13;;
16401;SDS011;8310;44.626;11.176;2024-01-30T01:04:54;280.65;;;26.60;;
16401;SDS011;8310;44.626;11.176;2024-01-30T01:07:21;240.27;;;27.00;;
16401;SDS011;8310;44.626;11.176;2024-01-30T01:09:50;250.70;;;26.02;;
16401;SDS011;8310;44.626;11.176;2024-01-30T01:12:18;259.13;;;28.23;;
16401;SDS011;8310;44.626;11.176;2024-01-30T01:14:46;246.43;;;29.67;;
16401;SDS011;8310;44.626;11.176;2024-01-30T01:17:13;203.40;;;29.00;;
16401;SDS011;8310;44.626;11.176;2024-01-30T01:19:41;261.98;;;29.15;;
16401;SDS011;8310;44.626;11.176;2024-01-30T01:22:11;271.23;;;27.93;;
16401;SDS011;8310;44.626;11.176;2024-01-30T01:24:39;262.02;;;29.15;;
16401;SDS011;8310;44.626;11.176;2024-01-30T01:27:08;188.85;;;28.92;;
16401;SDS011;8310;44.626;11.176;2024-01-30T01:29:35;227.27;;;29.60;;
16401;SDS011;8310;44.626;11.176;2024-01-30T01:32:03;192.47;;;30.07;;
16401;SDS011;8310;44.626;11.176;2024-01-30T01:34:30;234.93;;;29.67;;
16401;SDS011;8310;44.626;11.176;2024-01-30T01:36:58;145.93;;;29.83;;
16401;SDS011;8310;44.626;11.176;2024-01-30T01:39:27;184.50;;;30.77;;
16401;SDS011;8310;44.626;11.176;2024-01-30T01:41:54;207.80;;;32.03;;
16401;SDS011;8310;44.626;11.176;2024-01-30T01:44:23;176.55;;;30.80;;
16401;SDS011;8310;44.626;11.176;2024-01-30T01:46:51;210.80;;;32.13;;
16401;SDS011;8310;44.626;11.176;2024-01-30T01:49:23;186.80;;;30.45;;
16401;SDS011;8310;44.626;11.176;2024-01-30T01:51:52;285.47;;;30.97;;
16401;SDS011;8310;44.626;11.176;2024-01-30T01:54:22;207.20;;;31.13;;
16401;SDS011;8310;44.626;11.176;2024-01-30T01:56:51;225.50;;;31.42;;
16401;SDS011;8310;44.626;11.176;2024-01-30T01:59:20;231.63;;;30.57;;
16401;SDS011;8310;44.626;11.176;2024-01-30T02:01:50;176.27;;;31.35;;
16401;SDS011;8310;44.626;11.176;2024-01-30T02:04:22;279.83;;;29.33;;
16401;SDS011;8310;44.626;11.176;2024-01-30T02:06:49;310.60;;;31.70;;
16401;SDS011;8310;44.626;11.176;2024-01-30T02:09:17;285.13;;;30.55;;
16401;SDS011;8310;44.626;11.176;2024-01-30T02:11:45;282.08;;;30.25;;
16401;SDS011;8310;44.626;11.176;2024-01-30T02:14:13;297.10;;;31.80;;
16401;SDS011;8310;44.626;11.176;2024-01-30T02:16:41;300.38;;;32.47;;
16401;SDS011;8310;44.626;11.176;2024-01-30T02:19:10;304.67;;;30.52;;
16401;SDS011;8310;44.626;11.176;2024-01-30T02:21:38;225.20;;;31.55;;
16401;SDS011;8310;44.626;11.176;2024-01-30T02:24:06;274.33;;;31.23;;
16401;SDS011;8310;44.626;11.176;2024-01-30T02:26:33;207.30;;;30.25;;
16401;SDS011;8310;44.626;11.176;2024-01-30T02:29:01;275.33;;;29.88;;
16401;SDS011;8310;44.626;11.176;2024-01-30T02:31:29;290.60;;;33.75;;
16401;SDS011;8310;44.626;11.176;2024-01-30T02:33:56;220.55;;;29.85;;
16401;SDS011;8310;44.626;11.176;2024-01-30T02:36:24;263.05;;;29.92;;
16401;SDS011;8310;44.626;11.176;2024-01-30T02:38:53;214.52;;;31.77;;
16401;SDS011;8310;44.626;11.176;2024-01-30T02:41:21;265.38;;;31.10;;
16401;SDS011;8310;44.626;11.176;2024-01-30T02:43:49;262.42;;;33.40;;
16401;SDS011;8310;44.626;11.176;2024-01-30T02:46:15;282.85;;;31.20;;
16401;SDS011;8310;44.626;11.176;2024-01-30T02:48:42;291.05;;;31.50;;
16401;SDS011;8310;44.626;11.176;2024-01-30T02:51:10;292.33;;;31.52;;
16401;SDS011;8310;44.626;11.176;2024-01-30T02:53:37;228.20;;;29.63;;
16401;SDS011;8310;44.626;11.176;2024-01-30T02:56:07;295.38;;;31.98;;
16401;SDS011;8310;44.626;11.176;2024-01-30T02:58:35;267.23;;;29.98;;
16401;SDS011;8310;44.626;11.176;2024-01-30T03:01:03;299.67;;;30.20;;
16401;SDS011;8310;44.626;11.176;2024-01-30T03:03:31;335.02;;;31.58;;
16401;SDS011;8310;44.626;11.176;2024-01-30T03:06:00;346.27;;;31.52;;
16401;SDS011;8310;44.626;11.176;2024-01-30T03:08:27;323.42;;;31.27;;
16401;SDS011;8310;44.626;11.176;2024-01-30T03:10:56;326.98;;;32.90;;
16401;SDS011;8310;44.626;11.176;2024-01-30T03:13:26;329.83;;;32.58;;
16401;SDS011;8310;44.626;11.176;2024-01-30T03:15:54;278.60;;;30.92;;
16401;SDS011;8310;44.626;11.176;2024-01-30T03:18:21;281.70;;;31.75;;
16401;SDS011;8310;44.626;11.176;2024-01-30T03:20:49;321.70;;;31.67;;
16401;SDS011;8310;44.626;11.176;2024-01-30T03:23:17;296.20;;;33.60;;
16401;SDS011;8310;44.626;11.176;2024-01-30T03:25:44;361.33;;;33.45;;
16401;SDS011;8310;44.626;11.176;2024-01-30T03:28:13;330.63;;;31.60;;
16401;SDS011;8310;44.626;11.176;2024-01-30T03:30:42;288.55;;;31.50;;
16401;SDS011;8310;44.626;11.176;2024-01-30T03:33:10;392.08;;;34.28;;
16401;SDS011;8310;44.626;11.176;2024-01-30T03:35:37;340.00;;;30.93;;
16401;SDS011;8310;44.626;11.176;2024-01-30T03:38:05;366.08;;;33.40;;
16401;SDS011;8310;44.626;11.176;2024-01-30T03:40:32;369.35;;;31.65;;
16401;SDS011;8310;44.626;11.176;2024-01-30T03:43:00;286.05;;;30.90;;
16401;SDS011;8310;44.626;11.176;2024-01-30T03:45:27;385.02;;;33.72;;
16401;SDS011;8310;44.626;11.176;2024-01-30T03:47:59;284.03;;;33.07;;
16401;SDS011;8310;44.626;11.176;2024-01-30T03:50:27;339.52;;;31.80;;
16401;SDS011;8310;44.626;11.176;2024-01-30T03:52:54;317.55;;;30.50;;
16401;SDS011;8310;44.626;11.176;2024-01-30T03:55:22;293.80;;;32.83;;
16401;SDS011;8310;44.626;11.176;2024-01-30T03:57:52;290.60;;;30.30;;
16401;SDS011;8310;44.626;11.176;2024-01-30T04:00:20;305.63;;;30.77;;
16401;SDS011;8310;44.626;11.176;2024-01-30T04:02:48;286.35;;;31.30;;
16401;SDS011;8310;44.626;11.176;2024-01-30T04:05:17;280.77;;;29.30;;
16401;SDS011;8310;44.626;11.176;2024-01-30T04:07:45;300.58;;;31.35;;
16401;SDS011;8310;44.626;11.176;2024-01-30T04:10:12;300.77;;;31.08;;
16401;SDS011;8310;44.626;11.176;2024-01-30T04:12:40;246.00;;;33.67;;
16401;SDS011;8310;44.626;11.176;2024-01-30T04:15:08;293.08;;;30.92;;
16401;SDS011;8310;44.626;11.176;2024-01-30T04:17:36;289.97;;;30.83;;
16401;SDS011;8310;44.626;11.176;2024-01-30T04:20:03;269.50;;;32.15;;
16401;SDS011;8310;44.626;11.176;2024-01-30T04:22:32;280.10;;;31.37;;
16401;SDS011;8310;44.626;11.176;2024-01-30T04:25:00;293.75;;;31.33;;
16401;SDS011;8310;44.626;11.176;2024-01-30T04:27:28;222.47;;;32.63;;
16401;SDS011;8310;44.626;11.176;2024-01-30T04:29:55;236.20;;;33.47;;
16401;SDS011;8310;44.626;11.176;2024-01-30T04:32:23;282.45;;;33.50;;
16401;SDS011;8310;44.626;11.176;2024-01-30T04:34:50;290.00;;;33.33;;
16401;SDS011;8310;44.626;11.176;2024-01-30T04:37:18;230.57;;;33.53;;
16401;SDS011;8310;44.626;11.176;2024-01-30T04:39:47;255.52;;;36.03;;
16401;SDS011;8310;44.626;11.176;2024-01-30T04:42:14;246.38;;;34.97;;
16401;SDS011;8310;44.626;11.176;2024-01-30T04:44:42;259.43;;;34.63;;
16401;SDS011;8310;44.626;11.176;2024-01-30T04:47:09;291.40;;;35.40;;
16401;SDS011;8310;44.626;11.176;2024-01-30T04:49:38;247.17;;;36.03;;
16401;SDS011;8310;44.626;11.176;2024-01-30T04:52:06;263.63;;;34.50;;
16401;SDS011;8310;44.626;11.176;2024-01-30T04:54:34;320.63;;;35.90;;
16401;SDS011;8310;44.626;11.176;2024-01-30T04:57:04;290.10;;;35.75;;
16401;SDS011;8310;44.626;11.176;2024-01-30T04:59:34;296.90;;;36.67;;
16401;SDS011;8310;44.626;11.176;2024-01-30T05:02:02;320.70;;;38.08;;
16401;SDS011;8310;44.626;11.176;2024-01-30T05:04:30;224.73;;;35.33;;
16401;SDS011;8310;44.626;11.176;2024-01-30T05:06:57;393.08;;;37.78;;
16401;SDS011;8310;44.626;11.176;2024-01-30T05:09:25;389.93;;;38.90;;
16401;SDS011;8310;44.626;11.176;2024-01-30T05:11:52;236.07;;;36.90;;
16401;SDS011;8310;44.626;11.176;2024-01-30T05:14:21;299.17;;;38.40;;
16401;SDS011;8310;44.626;11.176;2024-01-30T05:16:49;213.85;;;36.33;;
16401;SDS011;8310;44.626;11.176;2024-01-30T05:19:16;233.60;;;36.17;;
16401;SDS011;8310;44.626;11.176;2024-01-30T05:21:44;289.70;;;37.95;;
16401;SDS011;8310;44.626;11.176;2024-01-30T05:24:11;207.70;;;37.72;;
16401;SDS011;8310;44.626;11.176;2024-01-30T05:26:42;362.13;;;39.60;;
16401;SDS011;8310;44.626;11.176;2024-01-30T05:29:09;301.13;;;37.08;;
16401;SDS011;8310;44.626;11.176;2024-01-30T05:31:39;280.13;;;38.58;;
16401;SDS011;8310;44.626;11.176;2024-01-30T05:34:07;294.77;;;39.90;;
16401;SDS011;8310;44.626;11.176;2024-01-30T05:36:34;233.20;;;39.28;;
16401;SDS011;8310;44.626;11.176;2024-01-30T05:39:02;229.47;;;39.43;;
16401;SDS011;8310;44.626;11.176;2024-01-30T05:41:30;296.45;;;40.50;;
16401;SDS011;8310;44.626;11.176;2024-01-30T05:43:57;339.95;;;41.53;;
16401;SDS011;8310;44.626;11.176;2024-01-30T05:46:24;258.98;;;36.22;;
16401;SDS011;8310;44.626;11.176;2024-01-30T05:48:53;198.98;;;38.63;;
16401;SDS011;8310;44.626;11.176;2024-01-30T05:51:21;294.38;;;39.28;;
16401;SDS011;8310;44.626;11.176;2024-01-30T05:53:49;320.63;;;42.00;;
16401;SDS011;8310;44.626;11.176;2024-01-30T05:56:16;312.27;;;40.85;;
16401;SDS011;8310;44.626;11.176;2024-01-30T05:58:44;268.60;;;37.47;;
16401;SDS011;8310;44.626;11.176;2024-01-30T06:01:11;289.92;;;39.60;;
16401;SDS011;8310;44.626;11.176;2024-01-30T06:03:39;372.70;;;42.22;;
16401;SDS011;8310;44.626;11.176;2024-01-30T06:06:09;255.73;;;39.57;;
16401;SDS011;8310;44.626;11.176;2024-01-30T06:08:37;350.10;;;42.42;;
16401;SDS011;8310;44.626;11.176;2024-01-30T06:11:04;334.90;;;43.63;;
16401;SDS011;8310;44.626;11.176;2024-01-30T06:13:32;289.73;;;41.45;;
16401;SDS011;8310;44.626;11.176;2024-01-30T06:15:59;372.75;;;42.00;;
16401;SDS011;8310;44.626;11.176;2024-01-30T06:18:26;315.20;;;41.15;;
16401;SDS011;8310;44.626;11.176;2024-01-30T06:20:56;351.27;;;41.17;;
16401;SDS011;8310;44.626;11.176;2024-01-30T06:23:25;382.20;;;40.10;;
16401;SDS011;8310;44.626;11.176;2024-01-30T06:25:53;340.27;;;39.53;;
16401;SDS011;8310;44.626;11.176;2024-01-30T06:28:21;279.50;;;37.00;;
16401;SDS011;8310;44.626;11.176;2024-01-30T06:30:48;319.83;;;36.72;;
16401;SDS011;8310;44.626;11.176;2024-01-30T06:33:20;367.98;;;39.72;;
16401;SDS011;8310;44.626;11.176;2024-01-30T06:35:48;279.60;;;37.37;;
16401;SDS011;8310;44.626;11.176;2024-01-30T06:38:15;263.90;;;37.08;;
16401;SDS011;8310;44.626;11.176;2024-01-30T06:40:44;269.42;;;35.08;;
16401;SDS011;8310;44.626;11.176;2024-01-30T06:43:11;364.73;;;36.42;;
16401;SDS011;8310;44.626;11.176;2024-01-30T06:45:39;298.42;;;38.67;;
16401;SDS011;8310;44.626;11.176;2024-01-30T06:48:07;366.42;;;36.03;;
16401;SDS011;8310;44.626;11.176;2024-01-30T06:50:35;314.35;;;35.50;;
16401;SDS011;8310;44.626;11.176;2024-01-30T06:53:03;279.27;;;35.70;;
16401;SDS011;8310;44.626;11.176;2024-01-30T06:55:30;309.80;;;37.63;;
16401;SDS011;8310;44.626;11.176;2024-01-30T06:57:59;364.52;;;38.80;;
16401;SDS011;8310;44.626;11.176;2024-01-30T07:00:27;200.67;;;36.80;;
16401;SDS011;8310;44.626;11.176;2024-01-30T07:02:55;261.17;;;38.67;;
16401;SDS011;8310;44.626;11.176;2024-01-30T07:05:22;304.97;;;36.60;;
16401;SDS011;8310;44.626;11.176;2024-01-30T07:07:50;224.00;;;36.15;;
16401;SDS011;8310;44.626;11.176;2024-01-30T07:10:18;315.60;;;37.20;;
16401;SDS011;8310;44.626;11.176;2024-01-30T07:12:45;268.95;;;37.13;;
16401;SDS011;8310;44.626;11.176;2024-01-30T07:15:14;181.55;;;35.58;;
16401;SDS011;8310;44.626;11.176;2024-01-30T07:17:44;196.65;;;33.60;;
16401;SDS011;8310;44.626;11.176;2024-01-30T07:20:12;188.38;;;33.03;;
16401;SDS011;8310;44.626;11.176;2024-01-30T07:22:40;237.70;;;35.17;;
16401;SDS011;8310;44.626;11.176;2024-01-30T07:25:07;221.57;;;38.17;;
16401;SDS011;8310;44.626;11.176;2024-01-30T07:27:35;235.13;;;36.35;;
16401;SDS011;8310;44.626;11.176;2024-01-30T07:30:03;211.75;;;32.33;;
16401;SDS011;8310;44.626;11.176;2024-01-30T07:32:33;220.83;;;33.40;;
16401;SDS011;8310;44.626;11.176;2024-01-30T07:35:00;205.40;;;31.25;;
16401;SDS011;8310;44.626;11.176;2024-01-30T07:37:28;246.75;;;35.38;;
16401;SDS011;8310;44.626;11.176;2024-01-30T07:39:56;241.30;;;35.80;;
16401;SDS011;8310;44.626;11.176;2024-01-30T07:42:23;197.27;;;35.50;;
16401;SDS011;8310;44.626;11.176;2024-01-30T07:44:54;249.18;;;38.35;;
16401;SDS011;8310;44.626;11.176;2024-01-30T07:47:21;190.30;;;33.67;;
16401;SDS011;8310;44.626;11.176;2024-01-30T07:49:51;188.82;;;33.30;;
16401;SDS011;8310;44.626;11.176;2024-01-30T07:52:19;194.32;;;35.65;;
16401;SDS011;8310;44.626;11.176;2024-01-30T07:54:47;301.57;;;35.70;;
16401;SDS011;8310;44.626;11.176;2024-01-30T07:57:16;360.35;;;36.83;;
16401;SDS011;8310;44.626;11.176;2024-01-30T07:59:43;363.92;;;36.97;;
16401;SDS011;8310;44.626;11.176;2024-01-30T08:02:11;249.32;;;36.05;;
16401;SDS011;8310;44.626;11.176;2024-01-30T08:04:39;213.80;;;32.13;;
16401;SDS011;8310;44.626;11.176;2024-01-30T08:07:08;396.88;;;35.08;;
16401;SDS011;8310;44.626;11.176;2024-01-30T08:09:36;243.55;;;33.03;;
16401;SDS011;8310;44.626;11.176;2024-01-30T08:12:04;295.60;;;35.25;;
16401;SDS011;8310;44.626;11.176;2024-01-30T08:14:31;332.73;;;36.47;;
16401;SDS011;8310;44.626;11.176;2024-01-30T08:16:58;215.40;;;31.95;;
16401;SDS011;8310;44.626;11.176;2024-01-30T08:19:27;382.00;;;35.97;;
16401;SDS011;8310;44.626;11.176;2024-01-30T08:21:55;331.67;;;35.37;;
16401;SDS011;8310;44.626;11.176;2024-01-30T08:24:24;265.95;;;34.45;;
16401;SDS011;8310;44.626;11.176;2024-01-30T08:26:52;305.55;;;37.13;;
16401;SDS011;8310;44.626;11.176;2024-01-30T08:29:19;308.20;;;35.15;;
16401;SDS011;8310;44.626;11.176;2024-01-30T08:31:47;197.25;;;32.97;;
16401;SDS011;8310;44.626;11.176;2024-01-30T08:34:15;317.40;;;35.78;;
16401;SDS011;8310;44.626;11.176;2024-01-30T08:36:42;266.85;;;35.30;;
16401;SDS011;8310;44.626;11.176;2024-01-30T08:39:10;225.80;;;34.15;;
16401;SDS011;8310;44.626;11.176;2024-01-30T08:41:42;185.60;;;33.33;;
16401;SDS011;8310;44.626;11.176;2024-01-30T08:44:09;198.00;;;33.72;;
16401;SDS011;8310;44.626;11.176;2024-01-30T08:46:37;111.00;;;31.50;;
16401;SDS011;8310;44.626;11.176;2024-01-30T08:49:06;168.40;;;33.53;;
16401;SDS011;8310;44.626;11.176;2024-01-30T08:51:33;142.38;;;33.70;;
16401;SDS011;8310;44.626;11.176;2024-01-30T08:54:01;174.45;;;32.22;;
16401;SDS011;8310;44.626;11.176;2024-01-30T08:56:29;125.80;;;30.35;;
16401;SDS011;8310;44.626;11.176;2024-01-30T08:58:58;176.75;;;32.13;;
16401;SDS011;8310;44.626;11.176;2024-01-30T09:01:25;171.23;;;32.92;;
16401;SDS011;8310;44.626;11.176;2024-01-30T09:03:53;123.90;;;30.60;;
16401;SDS011;8310;44.626;11.176;2024-01-30T09:06:21;106.45;;;32.00;;
16401;SDS011;8310;44.626;11.176;2024-01-30T09:08:49;101.85;;;29.75;;
16401;SDS011;8310;44.626;11.176;2024-01-30T09:11:16;99.82;;;30.00;;
16401;SDS011;8310;44.626;11.176;2024-01-30T09:13:43;107.22;;;31.27;;
16401;SDS011;8310;44.626;11.176;2024-01-30T09:16:13;64.72;;;29.27;;
16401;SDS011;8310;44.626;11.176;2024-01-30T09:18:41;72.60;;;31.38;;
16401;SDS011;8310;44.626;11.176;2024-01-30T09:21:09;92.70;;;31.52;;
16401;SDS011;8310;44.626;11.176;2024-01-30T09:23:36;108.83;;;30.70;;
16401;SDS011;8310;44.626;11.176;2024-01-30T09:26:04;70.33;;;29.57;;
16401;SDS011;8310;44.626;11.176;2024-01-30T09:28:31;53.95;;;30.27;;
16401;SDS011;8310;44.626;11.176;2024-01-30T09:30:59;52.17;;;30.00;;
16401;SDS011;8310;44.626;11.176;2024-01-30T09:33:28;53.22;;;28.45;;
16401;SDS011;8310;44.626;11.176;2024-01-30T09:35:56;73.47;;;29.10;;
16401;SDS011;8310;44.626;11.176;2024-01-30T09:38:23;57.97;;;28.52;;
16401;SDS011;8310;44.626;11.176;2024-01-30T09:40:51;64.53;;;28.77;;
16401;SDS011;8310;44.626;11.176;2024-01-30T09:43:22;61.97;;;29.52;;
16401;SDS011;8310;44.626;11.176;2024-01-30T09:45:51;44.45;;;29.00;;
16401;SDS011;8310;44.626;11.176;2024-01-30T09:48:20;47.03;;;28.80;;
16401;SDS011;8310;44.626;11.176;2024-01-30T09:50:50;44.90;;;27.77;;
16401;SDS011;8310;44.626;11.176;2024-01-30T09:53:19;44.60;;;27.98;;
16401;SDS011;8310;44.626;11.176;2024-01-30T09:55:47;49.97;;;32.28;;
16401;SDS011;8310;44.626;11.176;2024-01-30T09:58:16;45.95;;;31.20;;
16401;SDS011;8310;44.626;11.176;2024-01-30T10:00:44;45.30;;;30.02;;
16401;SDS011;8310;44.626;11.176;2024-01-30T10:03:14;42.75;;;28.70;;
16401;SDS011;8310;44.626;11.176;2024-01-30T10:05:41;40.28;;;26.90;;
16401;SDS011;8310;44.626;11.176;2024-01-30T10:08:18;40.27;;;27.73;;
16401;SDS011;8310;44.626;11.176;2024-01-30T10:10:46;40.50;;;27.85;;
16401;SDS011;8310;44.626;11.176;2024-01-30T10:13:14;39.67;;;27.55;;
16401;SDS011;8310;44.626;11.176;2024-01-30T10:15:42;39.17;;;27.70;;
16401;SDS011;8310;44.626;11.176;2024-01-30T10:18:10;38.88;;;27.00;;
16401;SDS011;8310;44.626;11.176;2024-01-30T10:20:38;40.60;;;28.70;;
16401;SDS011;8310;44.626;11.176;2024-01-30T10:23:05;41.40;;;28.52;;
16401;SDS011;8310;44.626;11.176;2024-01-30T10:25:35;41.35;;;29.50;;
16401;SDS011;8310;44.626;11.176;2024-01-30T10:28:02;39.33;;;27.38;;
16401;SDS011;8310;44.626;11.176;2024-01-30T10:30:30;40.80;;;27.05;;
16401;SDS011;8310;44.626;11.176;2024-01-30T10:32:57;42.80;;;29.33;;
16401;SDS011;8310;44.626;11.176;2024-01-30T10:35:25;44.47;;;29.13;;
16401;SDS011;8310;44.626;11.176;2024-01-30T10:37:52;44.03;;;29.05;;
16401;SDS011;8310;44.626;11.176;2024-01-30T10:40:24;44.53;;;28.57;;
16401;SDS011;8310;44.626;11.176;2024-01-30T10:42:56;39.97;;;27.83;;
16401;SDS011;8310;44.626;11.176;2024-01-30T10:45:28;37.67;;;26.93;;
16401;SDS011;8310;44.626;11.176;2024-01-30T10:47:56;43.43;;;27.13;;
16401;SDS011;8310;44.626;11.176;2024-01-30T10:50:26;42.95;;;28.67;;
16401;SDS011;8310;44.626;11.176;2024-01-30T10:52:54;40.88;;;28.55;;
16401;SDS011;8310;44.626;11.176;2024-01-30T10:55:22;39.00;;;27.65;;
16401;SDS011;8310;44.626;11.176;2024-01-30T10:57:51;39.00;;;26.67;;
16401;SDS011;8310;44.626;11.176;2024-01-30T11:00:20;36.17;;;24.70;;
16401;SDS011;8310;44.626;11.176;2024-01-30T11:02:51;37.23;;;25.30;;
16401;SDS011;8310;44.626;11.176;2024-01-30T11:05:23;37.35;;;25.60;;
16401;SDS011;8310;44.626;11.176;2024-01-30T11:07:51;32.92;;;24.60;;
16401;SDS011;8310;44.626;11.176;2024-01-30T11:10:19;36.25;;;24.60;;
16401;SDS011;8310;44.626;11.176;2024-01-30T11:12:46;31.43;;;23.03;;
16401;SDS011;8310;44.626;11.176;2024-01-30T11:15:16;31.67;;;23.50;;
16401;SDS011;8310;44.626;11.176;2024-01-30T11:17:47;30.15;;;23.08;;
16401;SDS011;8310;44.626;11.176;2024-01-30T11:20:19;32.17;;;22.70;;
16401;SDS011;8310;44.626;11.176;2024-01-30T11:22:49;29.33;;;21.92;;
16401;SDS011;8310;44.626;11.176;2024-01-30T11:25:19;30.70;;;20.25;;
16401;SDS011;8310;44.626;11.176;2024-01-30T11:27:49;29.97;;;21.30;;
16401;SDS011;8310;44.626;11.176;2024-01-30T11:30:22;30.20;;;19.98;;
16401;SDS011;8310;44.626;11.176;2024-01-30T11:33:02;30.77;;;21.58;;
16401;SDS011;8310;44.626;11.176;2024-01-30T11:35:32;30.75;;;22.95;;
16401;SDS011;8310;44.626;11.176;2024-01-30T11:38:01;29.60;;;19.98;;
16401;SDS011;8310;44.626;11.176;2024-01-30T11:40:30;34.80;;;23.50;;
16401;SDS011;8310;44.626;11.176;2024-01-30T11:43:00;38.63;;;24.33;;
16401;SDS011;8310;44.626;11.176;2024-01-30T11:45:28;35.33;;;23.20;;
16401;SDS011;8310;44.626;11.176;2024-01-30T11:47:56;33.28;;;23.70;;
16401;SDS011;8310;44.626;11.176;2024-01-30T11:50:26;35.10;;;23.07;;
16401;SDS011;8310;44.626;11.176;2024-01-30T11:52:54;36.25;;;24.05;;
16401;SDS011;8310;44.626;11.176;2024-01-30T11:55:23;33.35;;;23.42;;
16401;SDS011;8310;44.626;11.176;2024-01-30T11:57:51;34.13;;;24.30;;
16401;SDS011;8310;44.626;11.176;2024-01-30T12:00:21;35.38;;;24.10;;
16401;SDS011;8310;44.626;11.176;2024-01-30T12:02:49;32.88;;;22.67;;
16401;SDS011;8310;44.626;11.176;2024-01-30T12:05:20;32.43;;;23.63;;
16401;SDS011;8310;44.626;11.176;2024-01-30T12:07:50;32.97;;;22.60;;
16401;SDS011;8310;44.626;11.176;2024-01-30T12:10:18;38.95;;;24.08;;
16401;SDS011;8310;44.626;11.176;2024-01-30T12:12:46;32.25;;;22.88;;
16401;SDS011;8310;44.626;11.176;2024-01-30T12:15:16;33.03;;;22.02;;
16401;SDS011;8310;44.626;11.176;2024-01-30T12:17:46;30.27;;;22.55;;
16401;SDS011;8310;44.626;11.176;2024-01-30T12:20:15;33.78;;;22.50;;
16401;SDS011;8310;44.626;11.176;2024-01-30T12:22:45;30.88;;;21.80;;
16401;SDS011;8310;44.626;11.176;2024-01-30T12:25:15;31.70;;;22.25;;
16401;SDS011;8310;44.626;11.176;2024-01-30T12:27:45;31.48;;;21.70;;
16401;SDS011;8310;44.626;11.176;2024-01-30T12:30:15;32.27;;;23.37;;
16401;SDS011;8310;44.626;11.176;2024-01-30T12:32:44;30.25;;;22.83;;
16401;SDS011;8310;44.626;11.176;2024-01-30T12:35:13;29.95;;;22.88;;
16401;SDS011;8310;44.626;11.176;2024-01-30T12:37:42;32.47;;;23.33;;
16401;SDS011;8310;44.626;11.176;2024-01-30T12:40:11;30.42;;;22.13;;
16401;SDS011;8310;44.626;11.176;2024-01-30T12:42:41;31.92;;;23.10;;
16401;SDS011;8310;44.626;11.176;2024-01-30T12:45:11;32.80;;;23.17;;
16401;SDS011;8310;44.626;11.176;2024-01-30T12:47:39;31.13;;;23.50;;
16401;SDS011;8310;44.626;11.176;2024-01-30T12:50:08;36.30;;;23.00;;
16401;SDS011;8310;44.626;11.176;2024-01-30T12:52:35;29.33;;;22.10;;
16401;SDS011;8310;44.626;11.176;2024-01-30T12:55:02;32.15;;;23.08;;
16401;SDS011;8310;44.626;11.176;2024-01-30T12:57:30;28.55;;;22.10;;
16401;SDS011;8310;44.626;11.176;2024-01-30T12:59:59;29.60;;;22.52;;
16401;SDS011;8310;44.626;11.176;2024-01-30T13:02:27;31.60;;;22.98;;
16401;SDS011;8310;44.626;11.176;2024-01-30T13:05:01;29.95;;;22.23;;
16401;SDS011;8310;44.626;11.176;2024-01-30T13:07:29;31.92;;;22.77;;
16401;SDS011;8310;44.626;11.176;2024-01-30T13:09:56;30.33;;;22.85;;
16401;SDS011;8310;44.626;11.176;2024-01-30T13:12:28;31.00;;;22.47;;
16401;SDS011;8310;44.626;11.176;2024-01-30T13:14:55;36.30;;;24.42;;
16401;SDS011;8310;44.626;11.176;2024-01-30T13:17:24;32.05;;;22.92;;
16401;SDS011;8310;44.626;11.176;2024-01-30T13:19:52;32.10;;;23.27;;
16401;SDS011;8310;44.626;11.176;2024-01-30T13:22:20;31.83;;;23.33;;
16401;SDS011;8310;44.626;11.176;2024-01-30T13:24:48;30.42;;;23.10;;
16401;SDS011;8310;44.626;11.176;2024-01-30T13:27:15;31.52;;;22.83;;
16401;SDS011;8310;44.626;11.176;2024-01-30T13:29:43;30.95;;;23.92;;
16401;SDS011;8310;44.626;11.176;2024-01-30T13:32:11;32.58;;;24.02;;
16401;SDS011;8310;44.626;11.176;2024-01-30T13:34:40;32.88;;;23.42;;
16401;SDS011;8310;44.626;11.176;2024-01-30T13:37:08;33.10;;;24.57;;
16401;SDS011;8310;44.626;11.176;2024-01-30T13:39:35;33.00;;;24.50;;
16401;SDS011;8310;44.626;11.176;2024-01-30T13:42:04;32.70;;;24.38;;
16401;SDS011;8310;44.626;11.176;2024-01-30T13:44:31;33.30;;;24.70;;
16401;SDS011;8310;44.626;11.176;2024-01-30T13:46:59;35.65;;;23.77;;
16401;SDS011;8310;44.626;11.176;2024-01-30T13:49:27;34.10;;;24.70;;
16401;SDS011;8310;44.626;11.176;2024-01-30T13:51:57;37.95;;;23.50;;
16401;SDS011;8310;44.626;11.176;2024-01-30T13:54:25;33.40;;;24.57;;
16401;SDS011;8310;44.626;11.176;2024-01-30T13:56:52;31.30;;;24.33;;
16401;SDS011;8310;44.626;11.176;2024-01-30T13:59:20;34.25;;;24.45;;
16401;SDS011;8310;44.626;11.176;2024-01-30T14:01:49;32.00;;;24.15;;
16401;SDS011;8310;44.626;11.176;2024-01-30T14:04:17;31.65;;;23.55;;
16401;SDS011;8310;44.626;11.176;2024-01-30T14:06:44;32.53;;;24.37;;
16401;SDS011;8310;44.626;11.176;2024-01-30T14:09:14;33.38;;;24.35;;
16401;SDS011;8310;44.626;11.176;2024-01-30T14:11:41;32.70;;;24.08;;
16401;SDS011;8310;44.626;11.176;2024-01-30T14:14:09;33.50;;;25.42;;
16401;SDS011;8310;44.626;11.176;2024-01-30T14:16:37;33.72;;;24.45;;
16401;SDS011;8310;44.626;11.176;2024-01-30T14:19:04;33.88;;;25.20;;